Terminal Aerodrome Forecast
Issued by NWS

Home | Current Version | Previous Version | Text Only | Print | Product List | Glossary On
Versions: 1 2 3 4 5 6 7 8 9 10 11 12 13 14 15 16 17 18 19 20 21 22 23 24 25 26 27
000
FTUS43 KBIS 281733
TAFDIK
TAF
KDIK 281733Z 2818/2918 09009KT P6SM OVC011
     FM282000 08008KT P6SM VCSH BKN040
     FM282100 08008KT P6SM SCT080
     FM291200 16005KT P6SM FEW250=

USA.gov is the U.S. government's official web portal to all federal, state and local government web resources and services.